createdAt,value
2022-08-08T00:00:53.324Z,99.90
2022-08-08T00:02:49.086Z,99.90
2022-08-08T00:05:09.656Z,99.90
2022-08-08T00:07:28.597Z,99.90
2022-08-08T00:09:46.109Z,99.90
2022-08-08T00:12:09.403Z,99.90
2022-08-08T00:14:48.467Z,99.90
2022-08-08T00:17:03.574Z,99.90
2022-08-08T00:19:20.271Z,99.90
2022-08-08T00:21:39.404Z,99.90
2022-08-08T00:23:55.627Z,99.90
2022-08-08T00:26:08.881Z,99.90
2022-08-08T00:28:34.931Z,99.90
2022-08-08T00:31:00.798Z,99.90
2022-08-08T00:33:25.206Z,99.90
2022-08-08T00:36:01.204Z,99.90
2022-08-08T00:38:54.650Z,99.90
2022-08-08T00:41:45.089Z,99.90
2022-08-08T00:44:49.190Z,99.90
2022-08-08T00:48:05.393Z,99.90
2022-08-08T00:50:52.277Z,99.90
2022-08-08T00:53:15.718Z,99.90
2022-08-08T00:55:56.264Z,99.90
2022-08-08T00:58:54.823Z,99.90
2022-08-08T01:01:19.560Z,99.90
2022-08-08T01:04:17.871Z,99.90
2022-08-08T01:06:56.156Z,99.90
2022-08-08T01:09:35.873Z,99.90
2022-08-08T01:12:19.292Z,99.90
2022-08-08T01:15:11.682Z,99.90
2022-08-08T01:17:53.765Z,99.90
2022-08-08T01:20:39.922Z,99.90
2022-08-08T01:24:05.308Z,99.90
2022-08-08T01:26:28.806Z,99.90
2022-08-08T01:29:23.893Z,99.90
2022-08-08T01:32:17.243Z,99.90
2022-08-08T01:35:11.743Z,99.90
2022-08-08T01:38:11.508Z,99.90
2022-08-08T01:40:31.601Z,99.90
2022-08-08T01:42:51.201Z,99.90
2022-08-08T01:45:14.014Z,99.90
2022-08-08T01:48:11.582Z,99.90
2022-08-08T01:50:20.991Z,99.90
2022-08-08T01:54:11.586Z,99.90
2022-08-08T01:56:27.195Z,99.90
2022-08-08T01:58:10.774Z,99.90
2022-08-08T02:00:23.721Z,99.90
2022-08-08T02:02:54.147Z,99.90
2022-08-08T02:05:23.213Z,99.90
2022-08-08T02:07:42.105Z,99.90
2022-08-08T02:10:14.800Z,99.90
2022-08-08T02:12:51.545Z,99.90
2022-08-08T02:15:11.192Z,99.90
2022-08-08T02:17:36.627Z,99.90
2022-08-08T02:20:09.560Z,99.90
2022-08-08T02:22:52.463Z,99.90
2022-08-08T02:25:15.144Z,99.90
2022-08-08T02:27:42.100Z,99.90
2022-08-08T02:30:07.325Z,99.90
2022-08-08T02:33:00.687Z,99.90
2022-08-08T02:35:28.226Z,99.90
2022-08-08T02:37:56.796Z,99.90
2022-08-08T02:40:13.081Z,99.90
2022-08-08T02:44:34.679Z,99.90
2022-08-08T02:45:31.668Z,99.90
2022-08-08T02:48:28.724Z,99.90
2022-08-08T02:51:13.052Z,99.90
2022-08-08T02:53:47.284Z,99.90
2022-08-08T02:56:40.267Z,99.90
2022-08-08T02:59:58.442Z,99.90
2022-08-08T03:02:55.490Z,99.90
2022-08-08T03:05:45.147Z,99.90
2022-08-08T03:08:37.347Z,99.90
2022-08-08T03:11:48.052Z,99.90
2022-08-08T03:16:01.578Z,99.90
2022-08-08T03:17:05.752Z,99.90
2022-08-08T03:19:51.111Z,99.90
2022-08-08T03:21:59.884Z,99.90
2022-08-08T03:24:10.188Z,99.90
2022-08-08T03:26:27.488Z,99.90
2022-08-08T03:28:45.405Z,99.90
2022-08-08T03:31:13.602Z,99.90
2022-08-08T03:33:55.079Z,99.90
2022-08-08T03:35:56.223Z,99.90
2022-08-08T03:38:55.788Z,99.90
2022-08-08T03:40:36.955Z,99.90
2022-08-08T03:42:47.799Z,99.90
2022-08-08T03:44:56.075Z,99.90
2022-08-08T03:47:14.049Z,99.90
2022-08-08T03:49:57.257Z,99.90
2022-08-08T03:51:58.847Z,99.90
2022-08-08T03:54:07.660Z,99.90
2022-08-08T03:56:31.577Z,99.90
2022-08-08T03:58:41.508Z,99.90
2022-08-08T04:01:02.821Z,99.90
2022-08-08T04:03:58.144Z,99.90
2022-08-08T04:06:08.392Z,99.90
2022-08-08T04:08:33.483Z,99.90
2022-08-08T04:10:47.071Z,99.90
2022-08-08T04:13:18.020Z,99.90
2022-08-08T04:15:30.405Z,99.90
2022-08-08T04:17:58.772Z,99.90
2022-08-08T04:20:08.878Z,99.90
2022-08-08T04:22:17.136Z,99.90
2022-08-08T04:24:29.270Z,99.90
2022-08-08T04:26:56.756Z,99.90
2022-08-08T04:29:07.126Z,99.90
2022-08-08T04:31:57.252Z,99.90
2022-08-08T04:33:45.696Z,99.90
2022-08-08T04:35:54.038Z,99.90
2022-08-08T04:38:04.452Z,99.90
2022-08-08T04:40:14.306Z,99.90
2022-08-08T04:42:23.623Z,99.90
2022-08-08T04:44:34.101Z,99.90
2022-08-08T04:46:42.410Z,99.90
2022-08-08T04:48:51.648Z,99.90
2022-08-08T04:51:00.741Z,99.90
2022-08-08T04:53:14.059Z,99.90
2022-08-08T04:55:46.993Z,99.90
2022-08-08T04:58:06.217Z,99.90
2022-08-08T05:00:25.335Z,99.90
2022-08-08T05:02:34.865Z,99.90
2022-08-08T05:04:44.487Z,99.90
2022-08-08T05:06:53.437Z,99.90
2022-08-08T05:09:03.010Z,99.90
2022-08-08T05:11:22.674Z,99.90
2022-08-08T05:13:32.985Z,99.90
2022-08-08T05:16:48.527Z,99.90
2022-08-08T05:18:11.188Z,99.90
2022-08-08T05:20:22.133Z,99.90
2022-08-08T05:22:33.060Z,99.90
2022-08-08T05:24:48.803Z,99.90
2022-08-08T05:26:57.814Z,99.90
2022-08-08T05:29:08.547Z,99.90
2022-08-08T05:32:03.276Z,99.90
2022-08-08T05:33:51.327Z,99.90
2022-08-08T05:36:03.943Z,99.90
2022-08-08T05:38:31.991Z,99.90
2022-08-08T05:40:44.595Z,99.90
2022-08-08T05:43:38.534Z,99.90
2022-08-08T05:45:42.900Z,99.90
2022-08-08T05:48:08.846Z,99.90
2022-08-08T05:50:20.070Z,99.90
2022-08-08T05:52:35.641Z,99.90
2022-08-08T05:54:50.916Z,99.90
2022-08-08T05:57:01.104Z,99.90
2022-08-08T05:59:59.054Z,99.90
2022-08-08T06:01:57.142Z,99.90
2022-08-08T06:04:13.871Z,99.90
2022-08-08T06:06:32.728Z,99.90
2022-08-08T06:08:55.062Z,99.90
2022-08-08T06:11:08.835Z,99.90
2022-08-08T06:13:23.469Z,99.90
2022-08-08T06:15:51.000Z,99.90
2022-08-08T06:18:21.188Z,99.90
2022-08-08T06:20:32.396Z,99.90
2022-08-08T06:22:42.221Z,99.90
2022-08-08T06:24:51.186Z,99.90
2022-08-08T06:27:05.793Z,99.90
2022-08-08T06:29:48.757Z,99.90
2022-08-08T06:32:09.281Z,99.90
2022-08-08T06:34:26.676Z,99.90
2022-08-08T06:36:53.569Z,99.90
2022-08-08T06:39:06.887Z,99.90
2022-08-08T06:41:19.006Z,99.90
2022-08-08T06:43:35.645Z,99.90
2022-08-08T06:45:45.759Z,99.90
2022-08-08T06:48:01.347Z,99.90
2022-08-08T06:50:12.847Z,99.90
2022-08-08T06:52:31.964Z,99.90
2022-08-08T06:54:42.601Z,99.90
2022-08-08T06:56:52.761Z,99.90
2022-08-08T06:59:01.294Z,99.90
2022-08-08T07:02:18.172Z,99.90
2022-08-08T07:04:40.272Z,99.90
2022-08-08T07:06:26.852Z,99.90
2022-08-08T07:08:41.604Z,99.90
2022-08-08T07:10:52.077Z,99.90
2022-08-08T07:13:04.603Z,99.90
2022-08-08T07:15:32.614Z,99.90
2022-08-08T07:18:01.939Z,99.90
2022-08-08T07:20:21.185Z,99.90
2022-08-08T07:22:44.101Z,99.90
2022-08-08T07:25:01.874Z,99.90
2022-08-08T07:27:16.603Z,99.90
2022-08-08T07:30:02.612Z,99.90
2022-08-08T07:31:56.851Z,99.90
2022-08-08T07:34:08.989Z,99.90
2022-08-08T07:36:18.551Z,99.90
2022-08-08T07:38:28.435Z,99.90
2022-08-08T07:40:40.353Z,99.90
2022-08-08T07:42:54.227Z,99.90
2022-08-08T07:45:04.464Z,99.90
2022-08-08T07:47:12.991Z,99.90
2022-08-08T07:49:21.505Z,99.90
2022-08-08T07:51:44.747Z,99.90
2022-08-08T07:54:15.872Z,99.90
2022-08-08T07:56:45.801Z,99.90
2022-08-08T07:58:54.867Z,99.90
2022-08-08T08:01:07.612Z,99.90
2022-08-08T08:03:28.480Z,99.90
2022-08-08T08:05:43.269Z,99.90
2022-08-08T08:07:56.811Z,99.90
2022-08-08T08:10:12.307Z,99.90
2022-08-08T08:12:31.447Z,99.90
2022-08-08T08:14:54.812Z,99.90
2022-08-08T08:17:04.591Z,99.90
2022-08-08T08:19:18.107Z,99.90
2022-08-08T08:21:44.343Z,99.90
2022-08-08T08:24:02.825Z,99.90
2022-08-08T08:26:13.948Z,99.90
2022-08-08T08:28:37.334Z,98.50
2022-08-08T08:30:47.211Z,98.30
2022-08-08T08:32:57.668Z,96.50
2022-08-08T08:35:08.888Z,96.70
2022-08-08T08:37:20.258Z,96.80
2022-08-08T08:40:00.119Z,96.90
2022-08-08T08:41:59.165Z,96.70
2022-08-08T08:44:14.148Z,95.70
2022-08-08T08:46:25.921Z,95.20
2022-08-08T08:48:35.609Z,93.00
2022-08-08T08:50:46.529Z,92.90
2022-08-08T08:53:04.764Z,93.10
2022-08-08T08:55:16.515Z,94.20
2022-08-08T08:57:30.919Z,92.00
2022-08-08T09:00:00.070Z,92.50
2022-08-08T09:02:22.135Z,92.30
2022-08-08T09:04:39.569Z,91.70
2022-08-08T09:06:57.050Z,92.10
2022-08-08T09:09:26.066Z,90.30
2022-08-08T09:11:47.574Z,91.20
2022-08-08T09:14:10.863Z,91.00
2022-08-08T09:16:22.079Z,90.10
2022-08-08T09:18:39.427Z,90.60
2022-08-08T09:21:58.680Z,90.10
2022-08-08T09:23:25.849Z,89.30
2022-08-08T09:25:54.758Z,87.40
2022-08-08T09:28:06.968Z,88.20
2022-08-08T09:30:22.199Z,87.70
2022-08-08T09:32:50.368Z,88.10
2022-08-08T09:35:20.796Z,85.60
2022-08-08T09:38:01.179Z,85.80
2022-08-08T09:40:12.854Z,88.60
2022-08-08T09:42:25.989Z,87.50
2022-08-08T09:44:51.269Z,88.20
2022-08-08T09:47:26.490Z,88.30
2022-08-08T09:49:42.418Z,89.00
2022-08-08T09:52:06.190Z,88.50
2022-08-08T09:54:36.596Z,90.10
2022-08-08T09:56:55.737Z,88.00
2022-08-08T09:59:40.466Z,85.80
2022-08-08T10:01:59.972Z,85.10
2022-08-08T10:04:38.504Z,85.00
2022-08-08T10:06:53.067Z,85.80
2022-08-08T10:09:02.307Z,83.40
2022-08-08T10:11:12.163Z,83.80
2022-08-08T10:13:42.091Z,81.40
2022-08-08T10:16:00.332Z,84.00
2022-08-08T10:18:17.463Z,81.00
2022-08-08T10:20:51.061Z,81.20
2022-08-08T10:23:13.235Z,79.00
2022-08-08T10:25:36.182Z,80.60
2022-08-08T10:27:59.475Z,80.50
2022-08-08T10:30:16.477Z,77.40
2022-08-08T10:32:48.369Z,77.50
2022-08-08T10:35:01.614Z,79.70
2022-08-08T10:37:13.491Z,78.60
2022-08-08T10:39:31.698Z,80.70
2022-08-08T10:42:14.707Z,81.00
2022-08-08T10:44:35.369Z,79.60
2022-08-08T10:46:48.444Z,78.70
2022-08-08T10:48:59.143Z,77.00
2022-08-08T10:51:13.540Z,78.40
2022-08-08T10:53:56.421Z,77.10
2022-08-08T10:56:05.755Z,76.30
2022-08-08T10:58:16.176Z,75.30
2022-08-08T11:00:26.190Z,76.10
2022-08-08T11:02:36.302Z,74.50
2022-08-08T11:04:53.219Z,74.10
2022-08-08T11:07:03.103Z,75.50
2022-08-08T11:09:19.255Z,76.90
2022-08-08T11:12:05.477Z,77.50
2022-08-08T11:14:08.387Z,76.70
2022-08-08T11:16:32.278Z,72.90
2022-08-08T11:18:42.310Z,74.70
2022-08-08T11:20:54.037Z,75.00
2022-08-08T11:23:07.090Z,72.80
2022-08-08T11:25:16.470Z,74.00
2022-08-08T11:27:37.365Z,73.50
2022-08-08T11:29:58.243Z,74.70
2022-08-08T11:32:19.360Z,77.10
2022-08-08T11:34:42.008Z,77.00
2022-08-08T11:37:14.820Z,75.80
2022-08-08T11:39:25.225Z,75.20
2022-08-08T11:41:36.551Z,78.90
2022-08-08T11:43:49.057Z,76.10
2022-08-08T11:46:11.802Z,77.40
2022-08-08T11:48:27.742Z,76.00
2022-08-08T11:50:38.308Z,76.10
2022-08-08T11:52:48.914Z,75.00
2022-08-08T11:54:57.385Z,74.40
2022-08-08T11:57:14.635Z,73.70
2022-08-08T11:59:58.293Z,75.60
2022-08-08T12:02:41.636Z,72.10
2022-08-08T12:04:39.015Z,73.70
2022-08-08T12:06:48.712Z,74.10
2022-08-08T12:09:07.710Z,76.00
2022-08-08T12:11:23.257Z,74.00
2022-08-08T12:14:03.426Z,76.90
2022-08-08T12:16:13.068Z,75.10
2022-08-08T12:18:26.372Z,77.50
2022-08-08T12:20:41.851Z,75.40
2022-08-08T12:22:52.579Z,75.70
2022-08-08T12:25:02.949Z,76.50
2022-08-08T12:27:19.774Z,73.80
2022-08-08T12:29:42.531Z,75.20
2022-08-08T12:32:09.543Z,75.80
2022-08-08T12:34:36.373Z,75.60
2022-08-08T12:36:46.463Z,75.40
2022-08-08T12:39:00.463Z,76.80
2022-08-08T12:41:34.878Z,78.30
2022-08-08T12:43:59.333Z,76.40
2022-08-08T12:46:19.285Z,76.70
2022-08-08T12:48:38.555Z,78.20
2022-08-08T12:50:49.484Z,76.10
2022-08-08T12:52:57.991Z,77.00
2022-08-08T12:55:14.306Z,77.50
2022-08-08T12:57:25.934Z,76.40
2022-08-08T13:00:04.422Z,76.90
2022-08-08T13:02:28.317Z,77.90
2022-08-08T13:04:39.650Z,77.90
2022-08-08T13:07:00.913Z,78.70
2022-08-08T13:09:10.686Z,74.70
2022-08-08T13:11:28.466Z,75.70
2022-08-08T13:14:11.229Z,76.00
2022-08-08T13:16:21.807Z,74.20
2022-08-08T13:18:55.880Z,73.40
2022-08-08T13:21:05.965Z,70.60
2022-08-08T13:23:36.684Z,71.80
2022-08-08T13:25:51.121Z,72.20
2022-08-08T13:28:07.883Z,72.40
2022-08-08T13:30:21.190Z,69.00
2022-08-08T13:32:37.511Z,69.40
2022-08-08T13:34:52.551Z,70.90
2022-08-08T13:37:03.195Z,71.00
2022-08-08T13:39:20.535Z,72.80
2022-08-08T13:41:39.390Z,75.90
2022-08-08T13:43:52.677Z,71.80
2022-08-08T13:46:26.978Z,70.60
2022-08-08T13:48:46.288Z,71.60
2022-08-08T13:51:33.504Z,69.20
2022-08-08T13:54:00.179Z,68.30
2022-08-08T13:56:12.242Z,69.00
2022-08-08T13:58:21.066Z,68.90
2022-08-08T14:00:30.373Z,69.80
2022-08-08T14:02:41.216Z,65.60
2022-08-08T14:05:09.003Z,67.40
2022-08-08T14:07:31.285Z,67.90
2022-08-08T14:10:04.734Z,64.00
2022-08-08T14:12:15.804Z,64.90
2022-08-08T14:14:39.536Z,63.70
2022-08-08T14:16:51.180Z,63.50
2022-08-08T14:19:02.972Z,63.00
2022-08-08T14:21:20.878Z,60.80
2022-08-08T14:24:07.735Z,63.80
2022-08-08T14:26:22.015Z,62.30
2022-08-08T14:28:39.664Z,62.90
2022-08-08T14:30:50.113Z,61.50
2022-08-08T14:32:59.154Z,63.00
2022-08-08T14:35:09.607Z,60.00
2022-08-08T14:37:19.400Z,60.90
2022-08-08T14:39:48.369Z,62.20
2022-08-08T14:42:07.668Z,61.40
2022-08-08T14:44:22.506Z,63.30
2022-08-08T14:46:38.099Z,61.10
2022-08-08T14:48:57.170Z,62.00
2022-08-08T14:51:08.603Z,61.90
2022-08-08T14:53:55.047Z,62.10
2022-08-08T14:56:05.117Z,63.00
2022-08-08T14:58:16.941Z,62.80
2022-08-08T15:00:31.788Z,62.10
2022-08-08T15:02:58.787Z,65.60
2022-08-08T15:05:12.654Z,63.70
2022-08-08T15:07:24.239Z,62.20
2022-08-08T15:09:48.335Z,64.20
2022-08-08T15:12:00.219Z,63.50
2022-08-08T15:14:13.892Z,65.90
2022-08-08T15:16:23.535Z,62.10
2022-08-08T15:18:32.711Z,64.50
2022-08-08T15:20:41.162Z,63.40
2022-08-08T15:22:50.624Z,63.00
2022-08-08T15:25:00.215Z,65.20
2022-08-08T15:27:20.116Z,65.60
2022-08-08T15:29:39.751Z,65.40
2022-08-08T15:32:19.086Z,64.70
2022-08-08T15:34:29.226Z,64.70
2022-08-08T15:36:42.551Z,65.00
2022-08-08T15:38:54.740Z,67.20
2022-08-08T15:41:03.318Z,66.20
2022-08-08T15:43:35.074Z,66.30
2022-08-08T15:45:45.482Z,66.90
2022-08-08T15:48:05.502Z,68.00
2022-08-08T15:50:25.224Z,70.20
2022-08-08T15:52:34.329Z,70.40
2022-08-08T15:54:46.157Z,69.20
2022-08-08T15:56:56.744Z,70.70
2022-08-08T15:59:05.903Z,71.50
2022-08-08T16:01:16.597Z,71.40
2022-08-08T16:03:25.421Z,73.10
2022-08-08T16:05:35.732Z,75.00
2022-08-08T16:08:02.212Z,72.90
2022-08-08T16:13:07.339Z,74.40
2022-08-08T16:13:28.453Z,73.10
2022-08-08T16:15:12.527Z,72.70
2022-08-08T16:17:57.978Z,71.80
2022-08-08T16:19:59.613Z,74.40
2022-08-08T16:22:09.429Z,74.30
2022-08-08T16:24:37.950Z,75.20
2022-08-08T16:26:46.971Z,75.10
2022-08-08T16:28:59.628Z,75.00
2022-08-08T16:31:09.538Z,76.60
2022-08-08T16:33:20.389Z,76.60
2022-08-08T16:35:46.998Z,78.60
2022-08-08T16:37:58.449Z,78.70
2022-08-08T16:40:08.088Z,78.60
2022-08-08T16:42:20.972Z,79.30
2022-08-08T16:44:34.579Z,80.60
2022-08-08T16:46:46.053Z,80.00
2022-08-08T16:48:56.238Z,80.10
2022-08-08T16:51:08.344Z,80.00
2022-08-08T16:55:24.038Z,80.20
2022-08-08T16:55:53.557Z,81.90
2022-08-08T16:58:16.192Z,82.20
2022-08-08T17:00:27.541Z,81.10
2022-08-08T17:02:39.522Z,81.00
2022-08-08T17:04:51.038Z,81.70
2022-08-08T17:06:59.403Z,83.50
2022-08-08T17:09:14.897Z,83.80
2022-08-08T17:11:27.999Z,85.30
2022-08-08T17:13:41.415Z,86.10
2022-08-08T17:16:15.188Z,86.60
2022-08-08T17:18:25.327Z,84.80
2022-08-08T17:20:39.450Z,85.30
2022-08-08T17:23:16.280Z,84.80
2022-08-08T17:25:16.965Z,85.80
2022-08-08T17:27:28.923Z,85.70
2022-08-08T17:29:43.788Z,86.80
2022-08-08T17:32:04.429Z,88.30
2022-08-08T17:34:52.897Z,88.20
2022-08-08T17:37:00.826Z,88.10
2022-08-08T17:39:45.782Z,88.90
2022-08-08T17:41:45.299Z,89.50
2022-08-08T17:44:02.133Z,90.00
2022-08-08T17:46:37.302Z,90.60
2022-08-08T17:48:47.803Z,90.90
2022-08-08T17:50:56.703Z,91.20
2022-08-08T17:53:06.843Z,91.30
2022-08-08T17:56:05.366Z,91.90
2022-08-08T17:57:44.745Z,92.10
2022-08-08T17:59:59.133Z,92.60
2022-08-08T18:02:16.159Z,93.20
2022-08-08T18:04:31.273Z,93.90
2022-08-08T18:06:43.100Z,94.50
2022-08-08T18:08:55.323Z,95.60
2022-08-08T18:11:04.664Z,96.20
2022-08-08T18:13:15.327Z,97.60
2022-08-08T18:15:31.335Z,98.80
2022-08-08T18:18:09.749Z,99.90
2022-08-08T18:20:43.457Z,99.90
2022-08-08T18:22:50.764Z,99.90
2022-08-08T18:25:01.552Z,99.90
2022-08-08T18:27:15.319Z,99.90
2022-08-08T18:29:33.259Z,99.90
2022-08-08T18:31:42.654Z,99.90
2022-08-08T18:34:11.732Z,99.90
2022-08-08T18:36:23.437Z,99.90
2022-08-08T18:38:34.267Z,99.90
2022-08-08T18:40:45.745Z,99.90
2022-08-08T18:42:54.245Z,99.90
2022-08-08T18:45:09.130Z,99.90
2022-08-08T18:47:33.704Z,99.90
2022-08-08T18:49:58.020Z,99.90
2022-08-08T18:52:08.749Z,99.90
2022-08-08T18:54:29.919Z,99.90
2022-08-08T18:56:43.039Z,99.90
2022-08-08T18:58:52.595Z,99.90
2022-08-08T19:01:01.367Z,99.90
2022-08-08T19:03:10.164Z,99.90
2022-08-08T19:05:18.896Z,99.90
2022-08-08T19:07:33.385Z,99.90
2022-08-08T19:09:48.850Z,99.90
2022-08-08T19:12:00.285Z,99.90
2022-08-08T19:14:08.767Z,99.90
2022-08-08T19:16:23.678Z,99.90
2022-08-08T19:18:51.690Z,99.90
2022-08-08T19:21:29.060Z,99.90
2022-08-08T19:23:35.339Z,99.90
2022-08-08T19:26:19.953Z,99.90
2022-08-08T19:28:19.493Z,99.90
2022-08-08T19:30:29.867Z,99.90
2022-08-08T19:32:39.086Z,99.90
2022-08-08T19:34:49.411Z,99.90
2022-08-08T19:37:00.345Z,99.90
2022-08-08T19:39:09.562Z,99.90
2022-08-08T19:41:21.232Z,99.90
2022-08-08T19:43:31.872Z,99.90
2022-08-08T19:45:59.055Z,99.90
2022-08-08T19:48:28.265Z,99.90
2022-08-08T19:50:39.112Z,99.90
2022-08-08T19:52:54.646Z,99.90
2022-08-08T19:55:09.635Z,99.90
2022-08-08T19:57:20.211Z,99.90
2022-08-08T19:59:35.655Z,99.90
2022-08-08T20:01:50.143Z,99.90
2022-08-08T20:04:08.893Z,99.90
2022-08-08T20:06:18.389Z,99.90
2022-08-08T20:08:39.674Z,99.90
2022-08-08T20:10:50.185Z,99.90
2022-08-08T20:13:11.340Z,99.90
2022-08-08T20:15:59.965Z,99.90
2022-08-08T20:17:58.617Z,99.90
2022-08-08T20:20:11.113Z,99.90
2022-08-08T20:22:20.827Z,99.90
2022-08-08T20:24:35.422Z,99.90
2022-08-08T20:26:47.211Z,99.90
2022-08-08T20:28:58.071Z,99.90
2022-08-08T20:31:10.548Z,99.90
2022-08-08T20:35:32.774Z,99.90
2022-08-08T20:37:54.936Z,99.90
2022-08-08T20:40:03.837Z,99.90
2022-08-08T20:42:12.145Z,99.90
2022-08-08T20:44:21.675Z,99.90
2022-08-08T20:46:35.549Z,99.90
2022-08-08T20:48:46.115Z,99.90
2022-08-08T20:50:55.991Z,99.90
2022-08-08T20:53:10.929Z,99.90
2022-08-08T20:55:35.859Z,99.90
2022-08-08T20:57:51.318Z,99.90
2022-08-08T21:00:00.173Z,99.90
2022-08-08T21:02:12.545Z,99.90
2022-08-08T21:04:21.250Z,99.90
2022-08-08T21:06:52.613Z,99.90
2022-08-08T21:09:00.052Z,99.90
2022-08-08T21:11:09.820Z,99.90
2022-08-08T21:13:18.426Z,99.90
2022-08-08T21:16:06.347Z,99.90
2022-08-08T21:17:56.995Z,99.90
2022-08-08T21:20:07.989Z,99.90
2022-08-08T21:22:17.031Z,99.90
2022-08-08T21:24:30.332Z,99.90
2022-08-08T21:26:38.828Z,99.90
2022-08-08T21:28:48.680Z,99.90
2022-08-08T21:31:05.845Z,99.90
2022-08-08T21:33:31.392Z,99.90
2022-08-08T21:36:16.279Z,99.90
2022-08-08T21:38:16.551Z,99.90
2022-08-08T21:40:30.834Z,99.90
2022-08-08T21:42:40.099Z,99.90
2022-08-08T21:44:59.184Z,99.90
2022-08-08T21:48:07.780Z,99.90
2022-08-08T21:49:39.177Z,99.90
2022-08-08T21:54:34.834Z,99.90
2022-08-08T21:54:52.215Z,99.90
2022-08-08T21:56:50.203Z,99.90
2022-08-08T21:58:58.959Z,99.90
2022-08-08T22:01:17.162Z,99.90
2022-08-08T22:03:36.140Z,99.90
2022-08-08T22:05:49.275Z,99.90
2022-08-08T22:08:08.074Z,99.90
2022-08-08T22:10:32.042Z,99.90
2022-08-08T22:12:41.505Z,99.90
2022-08-08T22:14:49.950Z,99.90
2022-08-08T22:17:01.215Z,99.90
2022-08-08T22:19:16.262Z,99.90
2022-08-08T22:21:34.433Z,99.90
2022-08-08T22:23:50.271Z,99.90
2022-08-08T22:26:28.014Z,99.90
2022-08-08T22:29:04.917Z,99.90
2022-08-08T22:30:58.108Z,99.90
2022-08-08T22:33:21.914Z,99.90
2022-08-08T22:36:04.559Z,99.90
2022-08-08T22:38:05.866Z,99.90
2022-08-08T22:40:17.249Z,99.90
2022-08-08T22:42:31.492Z,99.90
2022-08-08T22:44:43.048Z,99.90
2022-08-08T22:46:51.587Z,99.90
2022-08-08T22:49:00.559Z,99.90
2022-08-08T22:51:08.867Z,99.90
2022-08-08T22:54:31.949Z,99.90
2022-08-08T22:55:58.368Z,99.90
2022-08-08T22:58:09.411Z,99.90
2022-08-08T23:00:18.789Z,99.90
2022-08-08T23:02:28.835Z,99.90
2022-08-08T23:04:37.451Z,99.90
2022-08-08T23:06:49.112Z,99.90
2022-08-08T23:09:12.809Z,99.90
2022-08-08T23:11:58.009Z,99.90
2022-08-08T23:14:00.680Z,99.90
2022-08-08T23:16:39.188Z,99.90
2022-08-08T23:18:39.331Z,99.90
2022-08-08T23:20:54.572Z,99.90
2022-08-08T23:23:03.403Z,99.90
2022-08-08T23:25:13.053Z,99.90
2022-08-08T23:27:39.444Z,99.90
2022-08-08T23:29:55.980Z,99.90
2022-08-08T23:32:10.163Z,99.90
2022-08-08T23:34:19.532Z,99.90
2022-08-08T23:36:28.200Z,99.90
2022-08-08T23:38:41.852Z,99.90
2022-08-08T23:40:54.611Z,99.90
2022-08-08T23:43:04.505Z,99.90
2022-08-08T23:45:13.149Z,99.90
2022-08-08T23:49:03.216Z,99.90
2022-08-08T23:50:03.295Z,99.90
2022-08-08T23:52:16.120Z,99.90
2022-08-08T23:54:41.858Z,99.90
2022-08-08T23:56:56.481Z,99.90
2022-08-08T23:59:17.161Z,99.90
